sensor_id;sensor_type;location;lat;lon;timestamp;P1;durP1;ratioP1;P2;durP2;ratioP2
8268;SDS011;4174;48.304;16.364;2022-12-07T00:03:55;16.02;;;7.35;;
8268;SDS011;4174;48.304;16.364;2022-12-07T00:09:59;19.02;;;7.87;;
8268;SDS011;4174;48.304;16.364;2022-12-07T00:16:05;16.45;;;7.03;;
8268;SDS011;4174;48.304;16.364;2022-12-07T00:22:10;15.88;;;7.45;;
8268;SDS011;4174;48.304;16.364;2022-12-07T00:28:15;17.30;;;7.75;;
8268;SDS011;4174;48.304;16.364;2022-12-07T00:34:20;16.58;;;7.87;;
8268;SDS011;4174;48.304;16.364;2022-12-07T00:40:22;16.87;;;8.20;;
8268;SDS011;4174;48.304;16.364;2022-12-07T00:46:26;17.75;;;7.93;;
8268;SDS011;4174;48.304;16.364;2022-12-07T00:52:29;18.03;;;8.50;;
8268;SDS011;4174;48.304;16.364;2022-12-07T00:58:33;20.17;;;8.70;;
8268;SDS011;4174;48.304;16.364;2022-12-07T01:04:37;19.30;;;8.80;;
8268;SDS011;4174;48.304;16.364;2022-12-07T01:10:41;19.13;;;8.80;;
8268;SDS011;4174;48.304;16.364;2022-12-07T01:16:44;19.27;;;9.10;;
8268;SDS011;4174;48.304;16.364;2022-12-07T01:22:48;19.75;;;8.75;;
8268;SDS011;4174;48.304;16.364;2022-12-07T01:28:52;20.40;;;9.50;;
8268;SDS011;4174;48.304;16.364;2022-12-07T01:34:54;21.08;;;9.20;;
8268;SDS011;4174;48.304;16.364;2022-12-07T01:40:59;19.47;;;9.03;;
8268;SDS011;4174;48.304;16.364;2022-12-07T01:47:02;19.43;;;8.77;;
8268;SDS011;4174;48.304;16.364;2022-12-07T01:53:03;18.87;;;8.90;;
8268;SDS011;4174;48.304;16.364;2022-12-07T01:59:06;18.87;;;8.70;;
8268;SDS011;4174;48.304;16.364;2022-12-07T02:05:09;17.75;;;8.82;;
8268;SDS011;4174;48.304;16.364;2022-12-07T02:11:12;20.95;;;9.02;;
8268;SDS011;4174;48.304;16.364;2022-12-07T02:17:19;18.83;;;8.97;;
8268;SDS011;4174;48.304;16.364;2022-12-07T02:23:30;18.20;;;8.88;;
8268;SDS011;4174;48.304;16.364;2022-12-07T02:29:52;21.00;;;9.00;;
8268;SDS011;4174;48.304;16.364;2022-12-07T02:36:02;18.43;;;8.80;;
8268;SDS011;4174;48.304;16.364;2022-12-07T02:42:13;19.63;;;9.13;;
8268;SDS011;4174;48.304;16.364;2022-12-07T02:48:16;20.35;;;8.77;;
8268;SDS011;4174;48.304;16.364;2022-12-07T02:54:18;20.55;;;8.98;;
8268;SDS011;4174;48.304;16.364;2022-12-07T03:00:21;18.63;;;8.20;;
8268;SDS011;4174;48.304;16.364;2022-12-07T03:06:28;17.42;;;8.20;;
8268;SDS011;4174;48.304;16.364;2022-12-07T03:12:31;17.57;;;8.23;;
8268;SDS011;4174;48.304;16.364;2022-12-07T03:18:35;17.47;;;8.10;;
8268;SDS011;4174;48.304;16.364;2022-12-07T03:24:39;18.23;;;8.33;;
8268;SDS011;4174;48.304;16.364;2022-12-07T03:30:46;18.62;;;8.27;;
8268;SDS011;4174;48.304;16.364;2022-12-07T03:36:57;18.03;;;8.53;;
8268;SDS011;4174;48.304;16.364;2022-12-07T03:43:05;18.95;;;8.13;;
8268;SDS011;4174;48.304;16.364;2022-12-07T03:49:13;20.03;;;8.30;;
8268;SDS011;4174;48.304;16.364;2022-12-07T03:55:17;17.90;;;8.20;;
8268;SDS011;4174;48.304;16.364;2022-12-07T04:01:23;18.43;;;8.00;;
8268;SDS011;4174;48.304;16.364;2022-12-07T04:07:25;16.20;;;7.80;;
8268;SDS011;4174;48.304;16.364;2022-12-07T04:13:28;17.80;;;7.97;;
8268;SDS011;4174;48.304;16.364;2022-12-07T04:19:32;18.27;;;8.10;;
8268;SDS011;4174;48.304;16.364;2022-12-07T04:25:34;16.83;;;7.30;;
8268;SDS011;4174;48.304;16.364;2022-12-07T04:31:38;18.85;;;8.43;;
8268;SDS011;4174;48.304;16.364;2022-12-07T04:37:41;17.13;;;7.50;;
8268;SDS011;4174;48.304;16.364;2022-12-07T04:43:45;17.23;;;7.30;;
8268;SDS011;4174;48.304;16.364;2022-12-07T04:49:49;18.00;;;7.40;;
8268;SDS011;4174;48.304;16.364;2022-12-07T04:55:52;17.23;;;7.10;;
8268;SDS011;4174;48.304;16.364;2022-12-07T05:01:56;15.33;;;6.80;;
8268;SDS011;4174;48.304;16.364;2022-12-07T05:08:00;16.50;;;7.07;;
8268;SDS011;4174;48.304;16.364;2022-12-07T05:14:06;15.37;;;6.80;;
8268;SDS011;4174;48.304;16.364;2022-12-07T05:20:11;16.57;;;7.40;;
8268;SDS011;4174;48.304;16.364;2022-12-07T05:26:15;21.48;;;9.20;;
8268;SDS011;4174;48.304;16.364;2022-12-07T05:32:18;20.23;;;8.93;;
8268;SDS011;4174;48.304;16.364;2022-12-07T05:38:23;15.60;;;7.10;;
8268;SDS011;4174;48.304;16.364;2022-12-07T05:44:25;15.10;;;6.90;;
8268;SDS011;4174;48.304;16.364;2022-12-07T05:50:30;15.15;;;6.95;;
8268;SDS011;4174;48.304;16.364;2022-12-07T05:56:34;15.93;;;7.30;;
8268;SDS011;4174;48.304;16.364;2022-12-07T06:02:37;14.30;;;6.27;;
8268;SDS011;4174;48.304;16.364;2022-12-07T06:08:41;15.63;;;6.77;;
8268;SDS011;4174;48.304;16.364;2022-12-07T06:14:46;15.27;;;6.27;;
8268;SDS011;4174;48.304;16.364;2022-12-07T06:20:50;14.85;;;6.68;;
8268;SDS011;4174;48.304;16.364;2022-12-07T06:26:53;14.07;;;6.27;;
8268;SDS011;4174;48.304;16.364;2022-12-07T06:32:56;12.57;;;5.70;;
8268;SDS011;4174;48.304;16.364;2022-12-07T06:39:00;12.67;;;5.30;;
8268;SDS011;4174;48.304;16.364;2022-12-07T06:45:04;11.77;;;4.97;;
8268;SDS011;4174;48.304;16.364;2022-12-07T06:51:10;13.13;;;5.63;;
8268;SDS011;4174;48.304;16.364;2022-12-07T06:57:13;13.53;;;6.20;;
8268;SDS011;4174;48.304;16.364;2022-12-07T07:03:17;12.73;;;5.43;;
8268;SDS011;4174;48.304;16.364;2022-12-07T07:09:20;13.47;;;5.67;;
8268;SDS011;4174;48.304;16.364;2022-12-07T07:15:23;13.63;;;5.90;;
8268;SDS011;4174;48.304;16.364;2022-12-07T07:21:27;13.37;;;5.47;;
8268;SDS011;4174;48.304;16.364;2022-12-07T07:27:30;14.57;;;5.47;;
8268;SDS011;4174;48.304;16.364;2022-12-07T07:33:34;11.50;;;5.17;;
8268;SDS011;4174;48.304;16.364;2022-12-07T07:39:38;13.15;;;5.28;;
8268;SDS011;4174;48.304;16.364;2022-12-07T07:45:43;12.03;;;5.30;;
8268;SDS011;4174;48.304;16.364;2022-12-07T07:51:45;11.75;;;5.07;;
8268;SDS011;4174;48.304;16.364;2022-12-07T07:57:49;12.40;;;5.17;;
8268;SDS011;4174;48.304;16.364;2022-12-07T08:03:53;11.43;;;5.03;;
8268;SDS011;4174;48.304;16.364;2022-12-07T08:09:58;13.30;;;5.60;;
8268;SDS011;4174;48.304;16.364;2022-12-07T08:16:04;12.23;;;5.10;;
8268;SDS011;4174;48.304;16.364;2022-12-07T08:22:07;11.63;;;4.67;;
8268;SDS011;4174;48.304;16.364;2022-12-07T08:28:10;10.67;;;4.60;;
8268;SDS011;4174;48.304;16.364;2022-12-07T08:34:14;11.75;;;5.10;;
8268;SDS011;4174;48.304;16.364;2022-12-07T08:40:17;11.67;;;5.10;;
8268;SDS011;4174;48.304;16.364;2022-12-07T08:46:26;10.95;;;4.60;;
8268;SDS011;4174;48.304;16.364;2022-12-07T08:52:33;10.05;;;4.37;;
8268;SDS011;4174;48.304;16.364;2022-12-07T08:58:35;9.90;;;4.57;;
8268;SDS011;4174;48.304;16.364;2022-12-07T09:04:37;9.60;;;4.20;;
8268;SDS011;4174;48.304;16.364;2022-12-07T09:10:41;10.33;;;4.50;;
8268;SDS011;4174;48.304;16.364;2022-12-07T09:16:44;9.47;;;4.37;;
8268;SDS011;4174;48.304;16.364;2022-12-07T09:22:48;9.50;;;4.20;;
8268;SDS011;4174;48.304;16.364;2022-12-07T09:28:52;7.57;;;3.60;;
8268;SDS011;4174;48.304;16.364;2022-12-07T09:34:56;8.13;;;3.50;;
8268;SDS011;4174;48.304;16.364;2022-12-07T09:41:03;8.18;;;3.47;;
8268;SDS011;4174;48.304;16.364;2022-12-07T09:47:08;7.72;;;3.42;;
8268;SDS011;4174;48.304;16.364;2022-12-07T09:53:15;8.55;;;3.80;;
8268;SDS011;4174;48.304;16.364;2022-12-07T09:59:26;7.83;;;3.40;;
8268;SDS011;4174;48.304;16.364;2022-12-07T10:05:31;7.50;;;3.42;;
8268;SDS011;4174;48.304;16.364;2022-12-07T10:11:33;7.43;;;3.25;;
8268;SDS011;4174;48.304;16.364;2022-12-07T10:17:38;7.40;;;3.27;;
8268;SDS011;4174;48.304;16.364;2022-12-07T10:23:58;6.93;;;3.08;;
8268;SDS011;4174;48.304;16.364;2022-12-07T10:29:47;7.93;;;3.60;;
8268;SDS011;4174;48.304;16.364;2022-12-07T10:35:50;8.90;;;4.18;;
8268;SDS011;4174;48.304;16.364;2022-12-07T10:41:56;9.30;;;4.27;;
8268;SDS011;4174;48.304;16.364;2022-12-07T10:48:05;7.63;;;3.70;;
8268;SDS011;4174;48.304;16.364;2022-12-07T10:54:36;8.80;;;3.60;;
8268;SDS011;4174;48.304;16.364;2022-12-07T11:01:12;7.70;;;3.50;;
8268;SDS011;4174;48.304;16.364;2022-12-07T11:07:21;7.83;;;3.50;;
8268;SDS011;4174;48.304;16.364;2022-12-07T11:14:19;7.70;;;3.20;;
8268;SDS011;4174;48.304;16.364;2022-12-07T11:20:12;7.40;;;3.20;;
8268;SDS011;4174;48.304;16.364;2022-12-07T11:26:25;7.70;;;3.30;;
8268;SDS011;4174;48.304;16.364;2022-12-07T11:38:49;9.10;;;3.80;;
8268;SDS011;4174;48.304;16.364;2022-12-07T11:44:53;8.73;;;3.90;;
8268;SDS011;4174;48.304;16.364;2022-12-07T11:50:54;8.50;;;3.70;;
8268;SDS011;4174;48.304;16.364;2022-12-07T11:56:56;9.60;;;4.17;;
8268;SDS011;4174;48.304;16.364;2022-12-07T12:03:15;7.90;;;3.50;;
8268;SDS011;4174;48.304;16.364;2022-12-07T12:09:19;8.13;;;3.80;;
8268;SDS011;4174;48.304;16.364;2022-12-07T12:15:33;8.57;;;3.90;;
8268;SDS011;4174;48.304;16.364;2022-12-07T12:21:54;8.65;;;3.70;;
8268;SDS011;4174;48.304;16.364;2022-12-07T12:27:56;8.27;;;3.53;;
8268;SDS011;4174;48.304;16.364;2022-12-07T12:33:59;8.10;;;3.40;;
8268;SDS011;4174;48.304;16.364;2022-12-07T12:46:37;7.50;;;3.30;;
8268;SDS011;4174;48.304;16.364;2022-12-07T12:53:14;8.03;;;3.30;;
8268;SDS011;4174;48.304;16.364;2022-12-07T13:05:18;9.02;;;4.20;;
8268;SDS011;4174;48.304;16.364;2022-12-07T13:23:58;9.07;;;4.00;;
8268;SDS011;4174;48.304;16.364;2022-12-07T13:30:00;9.50;;;4.10;;
8268;SDS011;4174;48.304;16.364;2022-12-07T13:36:03;9.50;;;3.75;;
8268;SDS011;4174;48.304;16.364;2022-12-07T13:42:11;8.30;;;3.60;;
8268;SDS011;4174;48.304;16.364;2022-12-07T13:48:12;9.27;;;3.53;;
8268;SDS011;4174;48.304;16.364;2022-12-07T13:54:13;7.53;;;3.30;;
8268;SDS011;4174;48.304;16.364;2022-12-07T14:00:16;9.20;;;3.60;;
8268;SDS011;4174;48.304;16.364;2022-12-07T14:06:24;9.43;;;3.75;;
8268;SDS011;4174;48.304;16.364;2022-12-07T14:12:28;9.60;;;3.67;;
8268;SDS011;4174;48.304;16.364;2022-12-07T14:18:30;9.10;;;3.70;;
8268;SDS011;4174;48.304;16.364;2022-12-07T14:24:42;8.90;;;3.50;;
8268;SDS011;4174;48.304;16.364;2022-12-07T14:30:45;10.37;;;4.50;;
8268;SDS011;4174;48.304;16.364;2022-12-07T14:36:49;8.73;;;3.77;;
8268;SDS011;4174;48.304;16.364;2022-12-07T14:42:55;8.95;;;3.90;;
8268;SDS011;4174;48.304;16.364;2022-12-07T14:48:58;10.68;;;4.32;;
8268;SDS011;4174;48.304;16.364;2022-12-07T14:55:02;10.30;;;4.40;;
8268;SDS011;4174;48.304;16.364;2022-12-07T15:01:06;12.88;;;5.00;;
8268;SDS011;4174;48.304;16.364;2022-12-07T15:07:15;11.83;;;4.80;;
8268;SDS011;4174;48.304;16.364;2022-12-07T15:13:18;12.23;;;4.70;;
8268;SDS011;4174;48.304;16.364;2022-12-07T15:19:27;10.93;;;4.60;;
8268;SDS011;4174;48.304;16.364;2022-12-07T15:25:31;10.43;;;4.50;;
8268;SDS011;4174;48.304;16.364;2022-12-07T15:31:34;11.18;;;4.57;;
8268;SDS011;4174;48.304;16.364;2022-12-07T15:37:37;12.20;;;5.30;;
8268;SDS011;4174;48.304;16.364;2022-12-07T15:43:41;13.32;;;5.18;;
8268;SDS011;4174;48.304;16.364;2022-12-07T15:49:50;10.80;;;4.57;;
8268;SDS011;4174;48.304;16.364;2022-12-07T15:55:54;10.93;;;4.50;;
8268;SDS011;4174;48.304;16.364;2022-12-07T16:01:58;11.68;;;4.40;;
8268;SDS011;4174;48.304;16.364;2022-12-07T16:08:04;10.60;;;4.57;;
8268;SDS011;4174;48.304;16.364;2022-12-07T16:14:08;10.43;;;4.60;;
8268;SDS011;4174;48.304;16.364;2022-12-07T16:20:13;11.18;;;4.62;;
8268;SDS011;4174;48.304;16.364;2022-12-07T16:26:17;13.00;;;5.23;;
8268;SDS011;4174;48.304;16.364;2022-12-07T16:32:19;12.05;;;5.18;;
8268;SDS011;4174;48.304;16.364;2022-12-07T16:38:23;11.20;;;4.80;;
8268;SDS011;4174;48.304;16.364;2022-12-07T16:44:27;12.60;;;5.00;;
8268;SDS011;4174;48.304;16.364;2022-12-07T16:50:32;13.20;;;5.40;;
8268;SDS011;4174;48.304;16.364;2022-12-07T16:56:37;12.68;;;5.00;;
8268;SDS011;4174;48.304;16.364;2022-12-07T17:02:40;12.43;;;4.78;;
8268;SDS011;4174;48.304;16.364;2022-12-07T17:08:44;11.97;;;5.20;;
8268;SDS011;4174;48.304;16.364;2022-12-07T17:14:47;11.77;;;5.00;;
8268;SDS011;4174;48.304;16.364;2022-12-07T17:21:01;13.47;;;5.30;;
8268;SDS011;4174;48.304;16.364;2022-12-07T17:27:03;12.27;;;5.13;;
8268;SDS011;4174;48.304;16.364;2022-12-07T17:33:06;13.45;;;5.43;;
8268;SDS011;4174;48.304;16.364;2022-12-07T17:39:11;14.63;;;5.83;;
8268;SDS011;4174;48.304;16.364;2022-12-07T17:45:13;13.77;;;5.80;;
8268;SDS011;4174;48.304;16.364;2022-12-07T17:51:17;14.57;;;5.67;;
8268;SDS011;4174;48.304;16.364;2022-12-07T17:57:27;13.98;;;5.43;;
8268;SDS011;4174;48.304;16.364;2022-12-07T18:03:31;13.90;;;5.70;;
8268;SDS011;4174;48.304;16.364;2022-12-07T18:09:35;13.60;;;5.60;;
8268;SDS011;4174;48.304;16.364;2022-12-07T18:15:38;12.93;;;5.27;;
8268;SDS011;4174;48.304;16.364;2022-12-07T18:21:42;13.77;;;5.33;;
8268;SDS011;4174;48.304;16.364;2022-12-07T18:27:44;12.80;;;5.20;;
8268;SDS011;4174;48.304;16.364;2022-12-07T18:33:48;13.33;;;5.40;;
8268;SDS011;4174;48.304;16.364;2022-12-07T18:39:51;13.47;;;5.50;;
8268;SDS011;4174;48.304;16.364;2022-12-07T18:45:54;11.50;;;4.83;;
8268;SDS011;4174;48.304;16.364;2022-12-07T18:51:58;14.05;;;5.62;;
8268;SDS011;4174;48.304;16.364;2022-12-07T18:58:03;13.40;;;5.47;;
8268;SDS011;4174;48.304;16.364;2022-12-07T19:04:05;13.45;;;5.95;;
8268;SDS011;4174;48.304;16.364;2022-12-07T19:10:09;14.37;;;6.00;;
8268;SDS011;4174;48.304;16.364;2022-12-07T19:16:12;15.90;;;6.00;;
8268;SDS011;4174;48.304;16.364;2022-12-07T19:22:17;12.82;;;5.60;;
8268;SDS011;4174;48.304;16.364;2022-12-07T19:28:18;14.73;;;6.10;;
8268;SDS011;4174;48.304;16.364;2022-12-07T19:34:22;14.83;;;5.87;;
8268;SDS011;4174;48.304;16.364;2022-12-07T19:40:25;14.87;;;5.83;;
8268;SDS011;4174;48.304;16.364;2022-12-07T19:46:29;14.13;;;5.83;;
8268;SDS011;4174;48.304;16.364;2022-12-07T19:52:33;15.07;;;6.00;;
8268;SDS011;4174;48.304;16.364;2022-12-07T19:58:36;14.80;;;5.83;;
8268;SDS011;4174;48.304;16.364;2022-12-07T20:04:40;13.87;;;5.90;;
8268;SDS011;4174;48.304;16.364;2022-12-07T20:10:43;16.47;;;6.90;;
8268;SDS011;4174;48.304;16.364;2022-12-07T20:16:46;15.80;;;6.57;;
8268;SDS011;4174;48.304;16.364;2022-12-07T20:22:49;16.40;;;6.80;;
8268;SDS011;4174;48.304;16.364;2022-12-07T20:28:53;15.40;;;6.63;;
8268;SDS011;4174;48.304;16.364;2022-12-07T20:34:56;13.83;;;6.37;;
8268;SDS011;4174;48.304;16.364;2022-12-07T20:41:01;15.10;;;6.17;;
8268;SDS011;4174;48.304;16.364;2022-12-07T20:47:03;16.87;;;7.17;;
8268;SDS011;4174;48.304;16.364;2022-12-07T20:53:07;14.87;;;6.25;;
8268;SDS011;4174;48.304;16.364;2022-12-07T20:59:10;14.30;;;5.80;;
8268;SDS011;4174;48.304;16.364;2022-12-07T21:05:11;14.00;;;5.87;;
8268;SDS011;4174;48.304;16.364;2022-12-07T21:11:14;14.47;;;5.83;;
8268;SDS011;4174;48.304;16.364;2022-12-07T21:17:17;13.48;;;5.57;;
8268;SDS011;4174;48.304;16.364;2022-12-07T21:23:20;13.90;;;5.60;;
8268;SDS011;4174;48.304;16.364;2022-12-07T21:29:24;13.50;;;5.23;;
8268;SDS011;4174;48.304;16.364;2022-12-07T21:35:28;11.30;;;4.65;;
8268;SDS011;4174;48.304;16.364;2022-12-07T21:41:32;11.73;;;4.50;;
8268;SDS011;4174;48.304;16.364;2022-12-07T21:47:35;11.97;;;5.00;;
8268;SDS011;4174;48.304;16.364;2022-12-07T21:53:40;12.45;;;4.70;;
8268;SDS011;4174;48.304;16.364;2022-12-07T21:59:41;11.13;;;4.40;;
8268;SDS011;4174;48.304;16.364;2022-12-07T22:05:44;10.63;;;4.43;;
8268;SDS011;4174;48.304;16.364;2022-12-07T22:11:48;11.10;;;4.35;;
8268;SDS011;4174;48.304;16.364;2022-12-07T22:17:52;10.90;;;4.53;;
8268;SDS011;4174;48.304;16.364;2022-12-07T22:23:54;11.30;;;4.23;;
8268;SDS011;4174;48.304;16.364;2022-12-07T22:29:58;10.80;;;4.20;;
8268;SDS011;4174;48.304;16.364;2022-12-07T22:36:02;10.98;;;4.30;;
8268;SDS011;4174;48.304;16.364;2022-12-07T22:42:05;10.33;;;4.17;;
8268;SDS011;4174;48.304;16.364;2022-12-07T22:48:09;11.10;;;4.43;;
8268;SDS011;4174;48.304;16.364;2022-12-07T22:54:13;11.27;;;4.47;;
8268;SDS011;4174;48.304;16.364;2022-12-07T23:00:18;10.85;;;4.28;;
8268;SDS011;4174;48.304;16.364;2022-12-07T23:06:23;10.38;;;3.92;;
8268;SDS011;4174;48.304;16.364;2022-12-07T23:12:26;10.77;;;4.43;;
8268;SDS011;4174;48.304;16.364;2022-12-07T23:18:36;10.45;;;4.10;;
8268;SDS011;4174;48.304;16.364;2022-12-07T23:24:38;10.23;;;4.17;;
8268;SDS011;4174;48.304;16.364;2022-12-07T23:30:44;9.97;;;3.70;;
8268;SDS011;4174;48.304;16.364;2022-12-07T23:36:47;11.07;;;3.70;;
8268;SDS011;4174;48.304;16.364;2022-12-07T23:42:50;10.03;;;3.80;;
8268;SDS011;4174;48.304;16.364;2022-12-07T23:48:55;9.50;;;3.90;;
8268;SDS011;4174;48.304;16.364;2022-12-07T23:54:58;9.10;;;3.70;;
